X  Close Metar Aviation Weather Data        KSPW Spencer, IA
Temperature
37°F Temperature
28°F Dewpoint
70% Humidity



Wind
21 MPH
33 KM/H
9 M/S
18 KTS



340°
NNW
Current Conditions

Cloudy Cloudy
Pressure 1016 (hPa) - 29.99 (inHg)
Visibility 10 (mile) - 16 (km)
Airport
Airport-code KSPW

Location: Spencer, IA
Distance: 17 (mi)

Metar:
METAR KSPW 190553Z AUTO 34018G23KT 10SM BKN019 BKN060 OVC075 03/M02 A2998 RMK AO2 SLP157 60000 T00281022 10172 20028 401941028 51021 $

Time: 04-19-2021 12:53 am CDT